createdAt,value
2017-09-03T00:02:03.595Z,101123.62
2017-09-03T00:04:31.524Z,101121.91
2017-09-03T00:06:59.432Z,101120.63
2017-09-03T00:09:27.352Z,101116.58
2017-09-03T00:11:55.343Z,101110.46
2017-09-03T00:14:23.259Z,101115.22
2017-09-03T00:16:51.159Z,101115.64
2017-09-03T00:19:19.080Z,101111.25
2017-09-03T00:21:46.992Z,101116.07
2017-09-03T00:24:14.996Z,101108.70
2017-09-03T00:26:42.904Z,101109.09
2017-09-03T00:29:10.811Z,101112.58
2017-09-03T00:31:38.948Z,101119.88
2017-09-03T00:34:06.861Z,101119.89
2017-09-03T00:36:34.768Z,101115.09
2017-09-03T00:39:02.696Z,101121.61
2017-09-03T00:41:30.613Z,101111.52
2017-09-03T00:43:58.524Z,101120.31
2017-09-03T00:46:26.438Z,101123.36
2017-09-03T00:48:54.366Z,101119.86
2017-09-03T00:51:22.282Z,101119.02
2017-09-03T00:53:50.195Z,101118.57
2017-09-03T00:56:18.104Z,101115.84
2017-09-03T00:58:46.168Z,101114.05
2017-09-03T01:01:14.068Z,101117.53
2017-09-03T01:03:41.980Z,101115.80
2017-09-03T01:06:09.895Z,101114.91
2017-09-03T01:08:37.877Z,101109.69
2017-09-03T01:11:05.790Z,101113.61
2017-09-03T01:13:33.687Z,101113.59
2017-09-03T01:16:01.608Z,101110.45
2017-09-03T01:18:29.524Z,101103.00
2017-09-03T01:20:57.431Z,101102.55
2017-09-03T01:23:25.361Z,101100.31
2017-09-03T01:25:53.281Z,101099.01
2017-09-03T01:28:21.201Z,101102.48
2017-09-03T01:30:49.121Z,101096.38
2017-09-03T01:33:17.025Z,101088.42
2017-09-03T01:35:44.931Z,101088.00
2017-09-03T01:38:12.844Z,101084.95
2017-09-03T01:40:40.756Z,101081.94
2017-09-03T01:43:08.895Z,101079.69
2017-09-03T01:45:37.133Z,101079.64
2017-09-03T01:48:05.042Z,101084.44
2017-09-03T01:50:32.960Z,101081.31
2017-09-03T01:53:00.869Z,101079.94
2017-09-03T01:55:29.011Z,101081.25
2017-09-03T01:57:56.908Z,101084.75
2017-09-03T02:00:24.829Z,101074.27
2017-09-03T02:02:52.744Z,101076.48
2017-09-03T02:05:20.651Z,101083.89
2017-09-03T02:07:48.586Z,101086.94
2017-09-03T02:10:16.660Z,101083.88
2017-09-03T02:12:44.580Z,101086.06
2017-09-03T02:15:12.479Z,101079.45
2017-09-03T02:17:40.397Z,101071.67
2017-09-03T02:20:08.337Z,101072.14
2017-09-03T02:22:36.251Z,101078.69
2017-09-03T02:25:04.152Z,101071.70
2017-09-03T02:27:32.058Z,101073.85
2017-09-03T02:29:59.959Z,101079.03
2017-09-03T02:32:27.879Z,101072.86
2017-09-03T02:34:55.797Z,101070.70
2017-09-03T02:37:23.707Z,101075.79
2017-09-03T02:39:51.633Z,101078.92
2017-09-03T02:42:19.536Z,101083.61
2017-09-03T02:44:47.675Z,101080.56
2017-09-03T02:47:15.585Z,101073.58
2017-09-03T02:49:43.691Z,101079.73
2017-09-03T02:52:11.587Z,101081.37
2017-09-03T02:54:39.491Z,101077.87
2017-09-03T02:57:07.404Z,101077.02
2017-09-03T02:59:35.304Z,101079.66
2017-09-03T03:02:03.215Z,101073.66
2017-09-03T03:04:31.129Z,101078.81
2017-09-03T03:06:59.043Z,101071.73
2017-09-03T03:09:26.947Z,101080.48
2017-09-03T03:11:54.869Z,101073.90
2017-09-03T03:14:22.785Z,101071.31
2017-09-03T03:16:50.705Z,101075.23
2017-09-03T03:19:18.615Z,101075.17
2017-09-03T03:21:46.589Z,101073.39
2017-09-03T03:24:14.483Z,101076.83
2017-09-03T03:26:42.400Z,101074.84
2017-09-03T03:29:10.305Z,101071.78
2017-09-03T03:31:38.211Z,101066.64
2017-09-03T03:34:06.106Z,101072.34
2017-09-03T03:36:33.998Z,101070.05
2017-09-03T03:39:01.919Z,101067.34
2017-09-03T03:41:29.819Z,101063.45
2017-09-03T03:43:57.727Z,101070.02
2017-09-03T03:46:25.637Z,101067.37
2017-09-03T03:48:53.543Z,101063.87
2017-09-03T03:51:21.763Z,101066.86
2017-09-03T03:53:49.671Z,101063.05
2017-09-03T03:56:17.584Z,101064.37
2017-09-03T03:58:45.486Z,101057.84
2017-09-03T04:01:13.390Z,101054.70
2017-09-03T04:03:41.308Z,101048.61
2017-09-03T04:06:09.296Z,101048.98
2017-09-03T04:08:37.455Z,101045.95
2017-09-03T04:11:05.394Z,101041.61
2017-09-03T04:13:33.320Z,101046.35
2017-09-03T04:16:01.215Z,101041.09
2017-09-03T04:18:29.132Z,101052.34
2017-09-03T04:20:57.031Z,101053.63
2017-09-03T04:23:24.939Z,101049.73
2017-09-03T04:25:52.855Z,101050.97
2017-09-03T04:28:20.759Z,101048.74
2017-09-03T04:30:48.677Z,101048.78
2017-09-03T04:33:16.849Z,101054.05
2017-09-03T04:35:44.752Z,101055.88
2017-09-03T04:38:12.854Z,101052.44
2017-09-03T04:40:40.751Z,101055.99
2017-09-03T04:43:08.655Z,101053.36
2017-09-03T04:45:36.572Z,101053.50
2017-09-03T04:48:04.470Z,101046.19
2017-09-03T04:50:32.501Z,101042.84
2017-09-03T04:53:00.411Z,101041.70
2017-09-03T04:55:28.328Z,101044.03
2017-09-03T04:57:56.229Z,101043.42
2017-09-03T05:00:24.159Z,101039.85
2017-09-03T05:02:52.066Z,101044.80
2017-09-03T05:05:19.993Z,101039.47
2017-09-03T05:07:47.905Z,101046.03
2017-09-03T05:10:15.819Z,101042.48
2017-09-03T05:12:43.729Z,101032.78
2017-09-03T05:15:11.640Z,101033.58
2017-09-03T05:17:39.560Z,101032.72
2017-09-03T05:20:07.477Z,101030.09
2017-09-03T05:22:35.491Z,101028.44
2017-09-03T05:25:03.409Z,101031.95
2017-09-03T05:27:31.334Z,101029.77
2017-09-03T05:29:59.242Z,101025.81
2017-09-03T05:32:27.154Z,101030.65
2017-09-03T05:34:55.062Z,101027.56
2017-09-03T05:37:22.975Z,101023.12
2017-09-03T05:39:50.875Z,101016.17
2017-09-03T05:42:18.805Z,101013.95
2017-09-03T05:44:46.702Z,101011.33
2017-09-03T05:47:14.620Z,101018.67
2017-09-03T05:49:42.514Z,101012.00
2017-09-03T05:52:10.433Z,101018.92
2017-09-03T05:54:38.345Z,101010.78
2017-09-03T05:57:06.351Z,101005.70
2017-09-03T05:59:34.251Z,101002.34
2017-09-03T06:02:02.173Z,101009.56
2017-09-03T06:04:30.079Z,101008.31
2017-09-03T06:06:58.013Z,101008.07
2017-09-03T06:09:25.963Z,101011.78
2017-09-03T06:11:53.877Z,101009.06
2017-09-03T06:14:21.788Z,101008.38
2017-09-03T06:16:49.709Z,101010.43
2017-09-03T06:19:17.630Z,101012.19
2017-09-03T06:21:45.538Z,101014.39
2017-09-03T06:24:13.454Z,101018.35
2017-09-03T06:26:41.371Z,101016.44
2017-09-03T06:29:09.293Z,101023.90
2017-09-03T06:31:37.199Z,101019.20
2017-09-03T06:34:05.112Z,101011.36
2017-09-03T06:36:33.304Z,101014.02
2017-09-03T06:39:01.228Z,101012.97
2017-09-03T06:41:29.127Z,101014.00
2017-09-03T06:43:57.048Z,101015.44
2017-09-03T06:46:24.955Z,101019.67
2017-09-03T06:48:52.859Z,101015.50
2017-09-03T06:51:20.781Z,101021.14
2017-09-03T06:53:48.692Z,101022.12
2017-09-03T06:56:16.609Z,101022.52
2017-09-03T06:58:44.514Z,101023.58
2017-09-03T07:01:12.433Z,101031.19
2017-09-03T07:03:40.345Z,101039.36
2017-09-03T07:06:08.266Z,101034.41
2017-09-03T07:08:36.403Z,101039.73
2017-09-03T07:11:04.325Z,101035.05
2017-09-03T07:13:32.224Z,101038.97
2017-09-03T07:16:00.146Z,101039.92
2017-09-03T07:18:28.052Z,101032.71
2017-09-03T07:20:55.963Z,101035.79
2017-09-03T07:23:23.937Z,101038.05
2017-09-03T07:25:51.861Z,101038.23
2017-09-03T07:28:19.776Z,101038.77
2017-09-03T07:30:47.691Z,101038.03
2017-09-03T07:33:15.602Z,101038.05
2017-09-03T07:35:43.511Z,101032.23
2017-09-03T07:38:11.415Z,101023.73
2017-09-03T07:40:39.343Z,101024.55
2017-09-03T07:43:07.259Z,101023.98
2017-09-03T07:45:35.171Z,101022.45
2017-09-03T07:48:03.077Z,101022.98
2017-09-03T07:50:30.983Z,101029.29
2017-09-03T07:52:58.891Z,101027.34
2017-09-03T07:55:26.804Z,101021.27
2017-09-03T07:57:54.722Z,101028.31
2017-09-03T08:00:22.635Z,101022.84
2017-09-03T08:02:50.540Z,101025.37
2017-09-03T08:05:18.456Z,101028.00
2017-09-03T08:07:46.661Z,101027.45
2017-09-03T08:10:14.776Z,101027.27
2017-09-03T08:12:42.684Z,101029.91
2017-09-03T08:15:10.879Z,101018.55
2017-09-03T08:17:38.797Z,101024.20
2017-09-03T08:20:06.699Z,101021.19
2017-09-03T08:22:34.621Z,101021.77
2017-09-03T08:25:02.519Z,101027.06
2017-09-03T08:27:30.727Z,101023.33
2017-09-03T08:29:58.631Z,101023.17
2017-09-03T08:32:26.566Z,101016.52
2017-09-03T08:34:54.467Z,101007.98
2017-09-03T08:37:22.385Z,101003.52
2017-09-03T08:39:50.288Z,101003.13
2017-09-03T08:42:18.205Z,100995.14
2017-09-03T08:44:46.111Z,100996.66
2017-09-03T08:47:14.029Z,100991.53
2017-09-03T08:49:41.927Z,100996.72
2017-09-03T08:52:09.886Z,100986.95
2017-09-03T08:54:37.798Z,101000.09
2017-09-03T08:57:05.720Z,101001.95
2017-09-03T08:59:33.618Z,101007.41
2017-09-03T09:02:01.544Z,100999.19
2017-09-03T09:04:29.477Z,101002.87
2017-09-03T09:06:57.384Z,100996.54
2017-09-03T09:09:25.287Z,100996.21
2017-09-03T09:11:53.192Z,100992.51
2017-09-03T09:14:21.113Z,100994.13
2017-09-03T09:16:49.058Z,100991.91
2017-09-03T09:19:16.963Z,100987.52
2017-09-03T09:21:44.871Z,100986.00
2017-09-03T09:24:12.789Z,100987.20
2017-09-03T09:26:40.696Z,100991.37
2017-09-03T09:29:08.603Z,100989.11
2017-09-03T09:31:36.513Z,100994.09
2017-09-03T09:34:04.415Z,101000.28
2017-09-03T09:36:32.328Z,100992.70
2017-09-03T09:39:00.252Z,100989.02
2017-09-03T09:41:28.150Z,100991.10
2017-09-03T09:43:56.125Z,100991.31
2017-09-03T09:46:24.032Z,100984.52
2017-09-03T09:48:51.947Z,100983.11
2017-09-03T09:51:20.177Z,100977.47
2017-09-03T09:53:48.086Z,100972.80
2017-09-03T09:56:26.981Z,100978.20
2017-09-03T09:58:55.100Z,100970.28
2017-09-03T10:01:23.003Z,100968.74
2017-09-03T10:03:50.906Z,100969.16
2017-09-03T10:06:18.832Z,100962.41
2017-09-03T10:08:46.732Z,100970.14
2017-09-03T10:11:14.887Z,100968.63
2017-09-03T10:13:42.786Z,100967.12
2017-09-03T10:16:10.700Z,100972.09
2017-09-03T10:18:38.619Z,100971.41
2017-09-03T10:21:06.536Z,100962.13
2017-09-03T10:23:34.449Z,100969.42
2017-09-03T10:26:02.360Z,100963.25
2017-09-03T10:28:30.270Z,100958.22
2017-09-03T10:30:58.172Z,100956.84
2017-09-03T10:33:26.084Z,100953.48
2017-09-03T10:35:53.993Z,100955.20
2017-09-03T10:38:21.904Z,100953.83
2017-09-03T10:40:49.808Z,100951.37
2017-09-03T10:43:17.715Z,100952.27
2017-09-03T10:45:45.608Z,100951.77
2017-09-03T10:48:13.530Z,100954.45
2017-09-03T10:50:42.308Z,100964.23
2017-09-03T10:53:10.214Z,100973.11
2017-09-03T10:55:38.154Z,100962.78
2017-09-03T10:58:06.063Z,100960.44
2017-09-03T11:00:33.957Z,100953.25
2017-09-03T11:03:02.022Z,100956.38
2017-09-03T11:05:29.922Z,100951.70
2017-09-03T11:07:57.819Z,100955.77
2017-09-03T11:10:25.737Z,100950.39
2017-09-03T11:12:53.678Z,100952.16
2017-09-03T11:15:21.592Z,100947.00
2017-09-03T11:17:49.491Z,100945.16
2017-09-03T11:20:17.401Z,100944.83
2017-09-03T11:22:45.303Z,100948.15
2017-09-03T11:25:13.224Z,100937.41
2017-09-03T11:27:41.124Z,100938.55
2017-09-03T11:30:09.183Z,100941.55
2017-09-03T11:32:37.084Z,100936.25
2017-09-03T11:35:05.070Z,100932.55
2017-09-03T11:37:32.989Z,100932.40
2017-09-03T11:40:00.908Z,100923.66
2017-09-03T11:42:28.825Z,100923.70
2017-09-03T11:44:56.731Z,100922.94
2017-09-03T11:47:24.638Z,100919.39
2017-09-03T11:49:52.548Z,100915.20
2017-09-03T11:52:20.740Z,100912.11
2017-09-03T11:54:48.648Z,100908.67
2017-09-03T11:57:16.553Z,100905.42
2017-09-03T11:59:44.454Z,100902.67
2017-09-03T12:02:12.369Z,100904.20
2017-09-03T12:04:40.303Z,100902.61
2017-09-03T12:07:08.215Z,100899.78
2017-09-03T12:09:36.112Z,100895.26
2017-09-03T12:12:04.253Z,100890.05
2017-09-03T12:14:32.155Z,100885.78
2017-09-03T12:17:00.343Z,100883.81
2017-09-03T12:19:28.515Z,100876.14
2017-09-03T12:21:56.424Z,100871.55
2017-09-03T12:24:24.339Z,100871.91
2017-09-03T12:26:52.339Z,100872.53
2017-09-03T12:29:20.496Z,100858.59
2017-09-03T12:31:48.412Z,100854.83
2017-09-03T12:34:16.317Z,100860.02
2017-09-03T12:36:44.225Z,100845.70
2017-09-03T12:39:12.143Z,100850.15
2017-09-03T12:41:40.038Z,100837.64
2017-09-03T12:44:07.947Z,100839.63
2017-09-03T12:46:35.857Z,100838.93
2017-09-03T12:49:03.777Z,100827.91
2017-09-03T12:51:31.674Z,100833.61
